createdAt,value
2018-06-15T00:00:08.250Z,99.99
2018-06-15T00:01:08.263Z,99.99
2018-06-15T00:02:08.197Z,99.99
2018-06-15T00:03:08.169Z,99.99
2018-06-15T00:04:08.147Z,99.99
2018-06-15T00:05:08.130Z,99.99
2018-06-15T00:06:08.106Z,99.99
2018-06-15T00:07:08.077Z,99.99
2018-06-15T00:08:08.055Z,99.99
2018-06-15T00:09:08.029Z,99.99
2018-06-15T00:10:08.007Z,99.99
2018-06-15T00:11:07.985Z,99.99
2018-06-15T00:12:07.962Z,99.99
2018-06-15T00:13:07.931Z,99.99
2018-06-15T00:14:07.916Z,99.99
2018-06-15T00:15:07.889Z,99.99
2018-06-15T00:16:07.860Z,99.99
2018-06-15T00:17:07.841Z,99.99
2018-06-15T00:18:07.813Z,99.99
2018-06-15T00:19:07.796Z,99.99
2018-06-15T00:20:07.759Z,99.99
2018-06-15T00:21:07.744Z,99.99
2018-06-15T00:22:07.718Z,99.99
2018-06-15T00:23:07.701Z,99.99
2018-06-15T00:24:07.665Z,99.99
2018-06-15T00:25:07.646Z,99.99
2018-06-15T00:26:07.624Z,99.99
2018-06-15T00:27:07.596Z,99.99
2018-06-15T00:28:07.574Z,99.99
2018-06-15T00:29:07.562Z,99.99
2018-06-15T00:30:07.523Z,99.99
2018-06-15T00:31:07.500Z,99.99
2018-06-15T00:32:07.472Z,99.99
2018-06-15T00:33:07.471Z,99.99
2018-06-15T00:34:07.425Z,99.99
2018-06-15T00:35:07.403Z,99.99
2018-06-15T00:36:07.382Z,99.99
2018-06-15T00:37:07.361Z,99.99
2018-06-15T00:38:07.335Z,99.99
2018-06-15T00:39:07.304Z,99.99
2018-06-15T00:40:07.276Z,99.99
2018-06-15T00:41:07.258Z,99.99
2018-06-15T00:42:07.238Z,99.99
2018-06-15T00:43:07.211Z,99.99
2018-06-15T00:44:07.183Z,99.99
2018-06-15T00:45:07.161Z,99.99
2018-06-15T00:46:07.146Z,99.99
2018-06-15T00:47:07.115Z,99.99
2018-06-15T00:48:07.090Z,99.99
2018-06-15T00:49:07.069Z,99.99
2018-06-15T00:50:07.036Z,99.99
2018-06-15T00:51:07.019Z,99.99
2018-06-15T00:52:06.993Z,99.99
2018-06-15T00:53:06.973Z,99.99
2018-06-15T00:54:06.945Z,99.99
2018-06-15T00:55:06.920Z,99.99
2018-06-15T00:56:06.894Z,99.99
2018-06-15T00:57:06.868Z,99.99
2018-06-15T00:58:06.853Z,99.99
2018-06-15T00:59:06.826Z,99.99
2018-06-15T01:00:06.803Z,99.99
2018-06-15T01:01:06.782Z,99.99
2018-06-15T01:02:06.748Z,99.99
2018-06-15T01:03:06.738Z,99.99
2018-06-15T01:04:06.703Z,99.99
2018-06-15T01:05:06.674Z,99.99
2018-06-15T01:06:06.659Z,99.99
2018-06-15T01:07:06.627Z,99.99
2018-06-15T01:08:06.610Z,99.99
2018-06-15T01:09:06.594Z,99.99
2018-06-15T01:10:06.561Z,99.99
2018-06-15T01:11:06.537Z,99.99
2018-06-15T01:12:06.518Z,99.99
2018-06-15T01:13:06.484Z,99.99
2018-06-15T01:14:06.462Z,99.99
2018-06-15T01:15:06.434Z,99.99
2018-06-15T01:16:06.420Z,99.99
2018-06-15T01:17:06.385Z,99.99
2018-06-15T01:18:06.370Z,99.99
2018-06-15T01:19:06.347Z,99.99
2018-06-15T01:20:06.311Z,99.99
2018-06-15T01:21:06.802Z,99.99
2018-06-15T01:22:06.265Z,99.99
2018-06-15T01:23:06.248Z,99.99
2018-06-15T01:24:06.215Z,99.99
2018-06-15T01:25:06.203Z,99.99
2018-06-15T01:26:06.182Z,99.99
2018-06-15T01:27:06.143Z,99.99
2018-06-15T01:28:06.125Z,99.99
2018-06-15T01:29:06.104Z,99.99
2018-06-15T01:30:06.080Z,99.99
2018-06-15T01:31:06.057Z,99.99
2018-06-15T01:32:06.022Z,99.99
2018-06-15T01:33:06.013Z,99.99
2018-06-15T01:34:05.975Z,99.99
2018-06-15T01:35:05.957Z,99.99
2018-06-15T01:36:05.935Z,99.99
2018-06-15T01:37:05.902Z,99.99
2018-06-15T01:38:05.895Z,99.99
2018-06-15T01:39:05.859Z,99.99
2018-06-15T01:40:05.830Z,99.99
2018-06-15T01:41:05.812Z,99.99
2018-06-15T01:42:05.792Z,99.99
2018-06-15T01:43:05.760Z,99.99
2018-06-15T01:44:05.734Z,99.99
2018-06-15T01:45:05.719Z,99.99
2018-06-15T01:46:05.691Z,99.99
2018-06-15T01:47:05.657Z,99.99
2018-06-15T01:48:05.644Z,99.99
2018-06-15T01:49:05.623Z,99.99
2018-06-15T01:50:05.591Z,99.99
2018-06-15T01:51:05.575Z,99.99
2018-06-15T01:52:05.539Z,99.99
2018-06-15T01:53:05.519Z,99.99
2018-06-15T01:54:05.500Z,99.99
2018-06-15T01:55:05.478Z,99.99
2018-06-15T01:56:05.447Z,99.99
2018-06-15T01:57:05.429Z,99.99
2018-06-15T01:58:05.396Z,99.99
2018-06-15T01:59:05.374Z,99.99
2018-06-15T02:00:05.349Z,99.99
2018-06-15T02:01:05.384Z,99.99
2018-06-15T02:02:05.308Z,99.99
2018-06-15T02:03:05.277Z,99.99
2018-06-15T02:04:05.263Z,99.99
2018-06-15T02:05:05.236Z,99.99
2018-06-15T02:06:05.201Z,99.99
2018-06-15T02:07:05.181Z,99.99
2018-06-15T02:08:05.169Z,99.99
2018-06-15T02:09:05.126Z,99.99
2018-06-15T02:10:05.116Z,99.99
2018-06-15T02:11:05.092Z,99.99
2018-06-15T02:12:05.064Z,99.99
2018-06-15T02:13:05.036Z,99.99
2018-06-15T02:14:05.010Z,99.99
2018-06-15T02:15:04.994Z,99.99
2018-06-15T02:16:04.964Z,99.99
2018-06-15T02:17:04.936Z,99.99
2018-06-15T02:18:04.914Z,99.99
2018-06-15T02:19:04.892Z,99.99
2018-06-15T02:20:04.869Z,99.99
2018-06-15T02:21:04.846Z,99.99
2018-06-15T02:22:04.816Z,99.99
2018-06-15T02:23:04.792Z,99.99
2018-06-15T02:24:04.768Z,99.99
2018-06-15T02:25:04.743Z,99.99
2018-06-15T02:26:04.723Z,99.99
2018-06-15T02:27:07.984Z,99.99
2018-06-15T02:28:07.912Z,99.99
2018-06-15T02:29:07.901Z,99.99
2018-06-15T02:30:05.568Z,99.99
2018-06-15T02:31:06.918Z,99.99
2018-06-15T02:32:05.814Z,99.99
2018-06-15T02:33:06.264Z,99.99
2018-06-15T02:34:05.945Z,99.99
2018-06-15T02:35:07.946Z,99.99
2018-06-15T02:36:04.481Z,99.99
2018-06-15T02:37:04.455Z,99.99
2018-06-15T02:38:04.448Z,99.99
2018-06-15T02:39:04.409Z,99.99
2018-06-15T02:40:04.377Z,99.99
2018-06-15T02:41:04.359Z,99.99
2018-06-15T02:42:04.334Z,99.99
2018-06-15T02:43:04.816Z,99.99
2018-06-15T02:44:04.283Z,99.99
2018-06-15T02:45:04.262Z,99.99
2018-06-15T02:46:04.239Z,99.99
2018-06-15T02:47:04.214Z,99.99
2018-06-15T02:48:04.182Z,99.99
2018-06-15T02:49:04.158Z,99.99
2018-06-15T02:50:04.141Z,99.99
2018-06-15T02:51:04.116Z,99.99
2018-06-15T02:52:04.094Z,99.99
2018-06-15T02:53:04.069Z,99.99
2018-06-15T02:54:04.044Z,99.99
2018-06-15T02:55:04.027Z,99.99
2018-06-15T02:56:03.987Z,99.99
2018-06-15T02:57:03.975Z,99.99
2018-06-15T02:58:03.950Z,99.99
2018-06-15T02:59:03.947Z,99.99
2018-06-15T03:00:03.904Z,99.99
2018-06-15T03:01:03.876Z,99.99
2018-06-15T03:02:03.899Z,99.99
2018-06-15T03:03:03.827Z,99.99
2018-06-15T03:04:03.841Z,99.99
2018-06-15T03:05:03.772Z,99.99
2018-06-15T03:06:03.753Z,99.99
2018-06-15T03:07:03.730Z,99.99
2018-06-15T03:08:03.697Z,99.99
2018-06-15T03:09:03.676Z,99.99
2018-06-15T03:10:03.671Z,99.99
2018-06-15T03:11:03.624Z,99.99
2018-06-15T03:12:03.609Z,99.99
2018-06-15T03:13:03.584Z,99.99
2018-06-15T03:14:03.555Z,99.99
2018-06-15T03:15:03.526Z,99.99
2018-06-15T03:16:03.511Z,99.99
2018-06-15T03:17:03.484Z,99.99
2018-06-15T03:18:03.458Z,99.99
2018-06-15T03:19:03.437Z,99.99
2018-06-15T03:20:03.406Z,99.99
2018-06-15T03:21:03.385Z,99.99
2018-06-15T03:22:03.362Z,99.99
2018-06-15T03:23:03.331Z,99.99
2018-06-15T03:24:03.322Z,99.99
2018-06-15T03:25:03.302Z,99.99
2018-06-15T03:26:03.263Z,99.99
2018-06-15T03:27:03.242Z,99.99
2018-06-15T03:28:03.208Z,99.99
2018-06-15T03:29:03.187Z,99.99
2018-06-15T03:30:03.169Z,99.99
2018-06-15T03:31:03.151Z,99.99
2018-06-15T03:32:03.115Z,99.99
2018-06-15T03:33:03.093Z,99.99
2018-06-15T03:34:03.072Z,99.99
2018-06-15T03:35:03.048Z,99.99
2018-06-15T03:36:03.024Z,99.99
2018-06-15T03:37:03.009Z,99.99
2018-06-15T03:38:02.980Z,99.99
2018-06-15T03:39:02.952Z,99.99
2018-06-15T03:40:02.919Z,99.99
2018-06-15T03:41:02.915Z,99.99
2018-06-15T03:42:02.873Z,99.99
2018-06-15T03:43:02.852Z,99.99
2018-06-15T03:44:02.836Z,99.99
2018-06-15T03:45:02.797Z,99.99
2018-06-15T03:46:02.782Z,99.99
2018-06-15T03:47:02.757Z,99.99
2018-06-15T03:48:02.728Z,99.99
2018-06-15T03:49:02.707Z,99.99
2018-06-15T03:50:02.687Z,99.99
2018-06-15T03:51:02.661Z,99.99
2018-06-15T03:52:02.628Z,99.99
2018-06-15T03:53:02.617Z,99.99
2018-06-15T03:54:02.581Z,99.99
2018-06-15T03:55:02.563Z,99.99
2018-06-15T03:56:02.539Z,99.99
2018-06-15T03:57:02.509Z,99.99
2018-06-15T03:58:02.488Z,99.99
2018-06-15T03:59:02.465Z,99.99
2018-06-15T04:00:02.440Z,99.99
2018-06-15T04:01:02.413Z,99.99
2018-06-15T04:02:02.391Z,99.99
2018-06-15T04:03:02.364Z,99.99
2018-06-15T04:04:02.347Z,99.99
2018-06-15T04:05:02.320Z,99.99
2018-06-15T04:06:02.302Z,99.99
2018-06-15T04:07:02.273Z,99.99
2018-06-15T04:08:02.241Z,99.99
2018-06-15T04:09:02.229Z,99.99
2018-06-15T04:10:02.194Z,99.99
2018-06-15T04:11:02.172Z,99.99
2018-06-15T04:12:02.154Z,99.99
2018-06-15T04:13:02.162Z,99.99
2018-06-15T04:14:02.113Z,99.99
2018-06-15T04:15:02.087Z,99.99
2018-06-15T04:16:02.047Z,99.99
2018-06-15T04:17:02.035Z,99.99
2018-06-15T04:18:02.003Z,99.99
2018-06-15T04:19:01.990Z,99.99
2018-06-15T04:20:01.950Z,99.99
2018-06-15T04:21:01.941Z,99.99
2018-06-15T04:22:01.905Z,99.99
2018-06-15T04:23:01.894Z,99.99
2018-06-15T04:24:01.864Z,99.99
2018-06-15T04:25:01.829Z,99.99
2018-06-15T04:26:01.814Z,99.99
2018-06-15T04:27:01.789Z,99.99
2018-06-15T04:28:01.761Z,99.99
2018-06-15T04:29:01.739Z,99.99
2018-06-15T04:30:01.720Z,99.99
2018-06-15T04:31:01.685Z,99.99
2018-06-15T04:32:01.666Z,99.99
2018-06-15T04:33:01.637Z,99.99
2018-06-15T04:34:01.615Z,99.99
2018-06-15T04:35:01.596Z,99.99
2018-06-15T04:36:01.570Z,99.99
2018-06-15T04:37:01.541Z,99.99
2018-06-15T04:38:01.527Z,99.99
2018-06-15T04:39:01.499Z,99.99
2018-06-15T04:40:01.474Z,99.99
2018-06-15T04:41:01.454Z,99.99
2018-06-15T04:42:01.420Z,99.99
2018-06-15T04:43:01.398Z,99.99
2018-06-15T04:44:01.380Z,99.99
2018-06-15T04:45:01.355Z,99.99
2018-06-15T04:46:01.340Z,99.99
2018-06-15T04:47:01.309Z,99.99
2018-06-15T04:48:01.289Z,99.99
2018-06-15T04:49:01.256Z,99.99
2018-06-15T04:50:01.238Z,99.99
2018-06-15T04:51:01.207Z,99.99
2018-06-15T04:52:01.192Z,99.99
2018-06-15T04:53:01.165Z,99.99
2018-06-15T04:54:01.136Z,99.99
2018-06-15T04:55:01.114Z,99.99
2018-06-15T04:56:01.096Z,99.99
2018-06-15T04:57:01.079Z,99.99
2018-06-15T04:58:01.047Z,99.99
2018-06-15T04:59:01.021Z,99.99
2018-06-15T05:00:00.995Z,99.99
2018-06-15T05:01:00.971Z,99.99
2018-06-15T05:02:00.966Z,99.99
2018-06-15T05:03:00.925Z,99.99
2018-06-15T05:04:00.906Z,99.99
2018-06-15T05:05:00.874Z,99.99
2018-06-15T05:06:00.849Z,99.99
2018-06-15T05:07:00.830Z,99.99
2018-06-15T05:08:00.798Z,99.99
2018-06-15T05:09:00.774Z,99.99
2018-06-15T05:10:00.771Z,99.99
2018-06-15T05:11:00.737Z,99.99
2018-06-15T05:12:00.706Z,99.99
2018-06-15T05:13:00.693Z,99.99
2018-06-15T05:14:00.657Z,99.99
2018-06-15T05:15:00.638Z,99.99
2018-06-15T05:16:00.616Z,99.99
2018-06-15T05:17:00.586Z,99.99
2018-06-15T05:18:00.569Z,99.99
2018-06-15T05:19:00.544Z,99.99
2018-06-15T05:20:00.510Z,99.99
2018-06-15T05:21:00.501Z,99.99
2018-06-15T05:22:00.469Z,99.99
2018-06-15T05:23:00.454Z,99.99
2018-06-15T05:24:00.423Z,99.99
2018-06-15T05:25:00.403Z,99.99
2018-06-15T05:26:00.376Z,99.99
2018-06-15T05:27:00.360Z,99.99
2018-06-15T05:28:00.327Z,99.99
2018-06-15T05:29:00.308Z,99.99
2018-06-15T05:30:00.284Z,99.99
2018-06-15T05:31:00.260Z,99.99
2018-06-15T05:32:00.235Z,99.99
2018-06-15T05:33:00.259Z,99.99
2018-06-15T05:34:00.192Z,99.99
2018-06-15T05:35:00.183Z,99.99
2018-06-15T05:36:00.136Z,99.99
2018-06-15T05:37:00.146Z,99.99
2018-06-15T05:38:00.096Z,99.99
2018-06-15T05:39:00.062Z,99.99
2018-06-15T05:40:00.049Z,99.99
2018-06-15T05:41:00.025Z,99.99
2018-06-15T05:42:00.004Z,99.99
2018-06-15T05:42:59.976Z,99.99
2018-06-15T05:43:59.949Z,99.99
2018-06-15T05:44:59.921Z,99.99
2018-06-15T05:45:59.907Z,99.99
2018-06-15T05:47:00.857Z,99.99
2018-06-15T05:47:59.876Z,99.99
2018-06-15T05:48:59.825Z,99.99
2018-06-15T05:49:59.857Z,99.99
2018-06-15T05:50:59.787Z,99.99
2018-06-15T05:51:59.763Z,99.99
2018-06-15T05:52:59.733Z,99.99
2018-06-15T05:53:59.707Z,99.99
2018-06-15T05:54:59.691Z,99.99
2018-06-15T05:55:59.659Z,99.99
2018-06-15T05:56:59.640Z,99.99
2018-06-15T05:57:59.621Z,99.99
2018-06-15T05:58:59.590Z,99.99
2018-06-15T05:59:59.575Z,99.99
2018-06-15T06:00:59.549Z,99.99
2018-06-15T06:01:59.527Z,99.99
2018-06-15T06:02:59.504Z,99.99
2018-06-15T06:03:59.577Z,99.99
2018-06-15T06:04:59.458Z,99.99
2018-06-15T06:05:59.451Z,99.99
2018-06-15T06:06:59.402Z,99.99
2018-06-15T06:07:59.388Z,99.99
2018-06-15T06:08:59.358Z,99.99
2018-06-15T06:09:59.342Z,99.99
2018-06-15T06:10:59.306Z,99.99
2018-06-15T06:11:59.294Z,99.99
2018-06-15T06:12:59.268Z,99.99
2018-06-15T06:13:59.243Z,99.99
2018-06-15T06:14:59.222Z,99.99
2018-06-15T06:15:59.190Z,99.99
2018-06-15T06:16:59.175Z,99.99
2018-06-15T06:17:59.152Z,99.99
2018-06-15T06:18:59.127Z,99.99
2018-06-15T06:19:59.140Z,99.99
2018-06-15T06:20:59.073Z,99.99
2018-06-15T06:21:59.064Z,99.99
2018-06-15T06:22:59.036Z,99.99
2018-06-15T06:23:59.004Z,99.99
2018-06-15T06:24:58.992Z,99.99
2018-06-15T06:25:58.960Z,99.99
2018-06-15T06:26:58.944Z,99.99
2018-06-15T06:27:58.919Z,99.99
2018-06-15T06:28:58.903Z,99.99
2018-06-15T06:29:58.866Z,99.99
2018-06-15T06:30:58.893Z,99.99
2018-06-15T06:31:58.834Z,99.99
2018-06-15T06:32:58.811Z,99.99
2018-06-15T06:33:58.783Z,99.98
2018-06-15T06:34:58.756Z,99.01
2018-06-15T06:35:58.739Z,98.91
2018-06-15T06:36:58.721Z,98.96
2018-06-15T06:37:58.711Z,96.61
2018-06-15T06:38:58.668Z,96.17
2018-06-15T06:39:58.639Z,95.75
2018-06-15T06:40:58.614Z,95.75
2018-06-15T06:41:58.600Z,96.99
2018-06-15T06:42:58.569Z,96.42
2018-06-15T06:43:58.555Z,94.98
2018-06-15T06:44:58.529Z,94.59
2018-06-15T06:45:58.505Z,94.21
2018-06-15T06:46:58.486Z,95.84
2018-06-15T06:47:58.462Z,96.22
2018-06-15T06:48:58.435Z,96.99
2018-06-15T06:49:58.416Z,97.28
2018-06-15T06:50:58.387Z,97.67
2018-06-15T06:51:58.373Z,97.19
2018-06-15T06:52:58.352Z,96.51
2018-06-15T06:53:58.325Z,97.86
2018-06-15T06:54:58.305Z,97.96
2018-06-15T06:55:58.307Z,97.96
2018-06-15T06:56:58.257Z,98.91
2018-06-15T06:57:58.311Z,99.01
2018-06-15T06:58:58.213Z,97.81
2018-06-15T06:59:58.194Z,97.81
2018-06-15T07:00:58.172Z,97.04
2018-06-15T07:01:58.257Z,96.75
2018-06-15T07:02:58.122Z,97.14
2018-06-15T07:03:58.105Z,97.62
2018-06-15T07:04:58.075Z,97.28
2018-06-15T07:05:58.053Z,98.24
2018-06-15T07:06:58.027Z,98.77
2018-06-15T07:07:58.006Z,97.86
2018-06-15T07:08:57.986Z,98.34
2018-06-15T07:09:57.955Z,98.63
2018-06-15T07:10:57.930Z,98.63
2018-06-15T07:11:57.919Z,98.63
2018-06-15T07:12:57.886Z,98.72
2018-06-15T07:13:57.871Z,98.43
2018-06-15T07:14:57.850Z,97.76
2018-06-15T07:15:57.875Z,98.24
2018-06-15T07:16:57.802Z,98.43
2018-06-15T07:17:57.777Z,98.82
2018-06-15T07:18:57.748Z,97.57
2018-06-15T07:19:57.728Z,97.96
2018-06-15T07:20:57.704Z,98.24
2018-06-15T07:21:57.683Z,99.30
2018-06-15T07:22:57.659Z,99.49
2018-06-15T07:23:57.647Z,99.87
2018-06-15T07:24:57.616Z,99.99
2018-06-15T07:25:57.595Z,99.99
2018-06-15T07:26:57.569Z,99.99
2018-06-15T07:27:57.539Z,99.99
2018-06-15T07:28:57.527Z,99.99
2018-06-15T07:29:57.529Z,99.99
2018-06-15T07:30:57.471Z,99.99
2018-06-15T07:31:57.452Z,99.99
2018-06-15T07:32:57.422Z,99.99
2018-06-15T07:33:57.411Z,99.99
2018-06-15T07:34:57.382Z,99.99
2018-06-15T07:35:57.357Z,99.99
2018-06-15T07:36:57.338Z,99.99
2018-06-15T07:37:57.310Z,99.99
2018-06-15T07:38:57.285Z,99.99
2018-06-15T07:39:57.269Z,99.99
2018-06-15T07:40:57.235Z,99.99
2018-06-15T07:41:57.212Z,99.99
2018-06-15T07:42:57.210Z,99.99
2018-06-15T07:43:57.173Z,99.99
2018-06-15T07:44:57.144Z,99.99
2018-06-15T07:45:57.129Z,99.99
2018-06-15T07:46:57.098Z,99.99
2018-06-15T07:47:57.082Z,99.99
2018-06-15T07:48:57.058Z,99.99
2018-06-15T07:49:57.031Z,99.99
2018-06-15T07:50:57.013Z,99.99
2018-06-15T07:51:56.984Z,99.99
2018-06-15T07:52:56.960Z,99.99
2018-06-15T07:53:56.940Z,99.99
2018-06-15T07:54:56.913Z,99.99
2018-06-15T07:55:56.898Z,99.99
2018-06-15T07:56:56.873Z,99.99
2018-06-15T07:57:56.849Z,99.99
2018-06-15T07:58:56.831Z,99.99
2018-06-15T07:59:56.797Z,99.99
2018-06-15T08:00:56.776Z,99.78
2018-06-15T08:01:56.755Z,98.86
2018-06-15T08:02:56.726Z,99.99
2018-06-15T08:03:56.712Z,99.99
2018-06-15T08:04:56.693Z,98.48
2018-06-15T08:05:56.657Z,99.49
2018-06-15T08:06:56.640Z,98.72
2018-06-15T08:07:56.619Z,98.14
2018-06-15T08:08:56.608Z,97.42
2018-06-15T08:09:56.574Z,96.37
2018-06-15T08:10:56.548Z,97.71
2018-06-15T08:11:56.530Z,97.28
2018-06-15T08:12:56.500Z,95.12
2018-06-15T08:13:59.061Z,95.17
2018-06-15T08:14:59.058Z,94.87
2018-06-15T08:15:58.992Z,93.33
2018-06-15T08:16:58.443Z,92.18
2018-06-15T08:17:57.674Z,91.41
2018-06-15T08:18:57.051Z,92.61
2018-06-15T08:19:56.348Z,90.69
2018-06-15T08:20:56.321Z,89.72
2018-06-15T08:21:56.307Z,89.58
2018-06-15T08:22:56.278Z,90.20
2018-06-15T08:23:56.253Z,90.59
2018-06-15T08:24:56.234Z,89.72
2018-06-15T08:25:56.212Z,89.72
2018-06-15T08:26:56.185Z,90.06
2018-06-15T08:27:56.162Z,87.74
2018-06-15T08:28:56.149Z,87.17
2018-06-15T08:29:56.124Z,86.59
2018-06-15T08:30:56.106Z,87.65
2018-06-15T08:31:56.084Z,87.17
2018-06-15T08:32:56.058Z,86.49
2018-06-15T08:33:56.035Z,86.49
2018-06-15T08:34:56.018Z,87.07
2018-06-15T08:35:55.987Z,86.49
2018-06-15T08:36:55.966Z,86.92
2018-06-15T08:37:55.955Z,87.30
2018-06-15T08:38:55.933Z,85.67
2018-06-15T08:39:55.910Z,86.63
2018-06-15T08:40:55.889Z,85.09
2018-06-15T08:41:55.861Z,84.99
2018-06-15T08:42:55.845Z,83.07
2018-06-15T08:43:55.823Z,83.16
2018-06-15T08:44:55.804Z,82.97
2018-06-15T08:45:55.785Z,83.36
2018-06-15T08:46:55.771Z,83.26
2018-06-15T08:47:55.738Z,82.39
2018-06-15T08:48:55.710Z,81.72
2018-06-15T08:49:55.689Z,81.33
2018-06-15T08:50:55.670Z,82.01
2018-06-15T08:51:55.654Z,82.10
2018-06-15T08:52:55.634Z,83.55
2018-06-15T08:53:55.617Z,82.97
2018-06-15T08:54:55.586Z,83.45
2018-06-15T08:55:55.561Z,82.49
2018-06-15T08:56:55.550Z,83.16
2018-06-15T08:57:55.519Z,84.32
2018-06-15T08:58:55.503Z,82.01
2018-06-15T08:59:55.476Z,80.94
2018-06-15T09:00:55.464Z,81.14
2018-06-15T09:01:55.455Z,79.21
2018-06-15T09:02:55.415Z,79.11
2018-06-15T09:03:55.399Z,78.92
2018-06-15T09:04:55.405Z,79.41
2018-06-15T09:05:55.351Z,80.62
2018-06-15T09:06:55.325Z,81.58
2018-06-15T09:07:55.320Z,82.54
2018-06-15T09:08:55.295Z,83.31
2018-06-15T09:09:55.270Z,83.41
2018-06-15T09:10:55.252Z,84.28
2018-06-15T09:11:55.221Z,84.52
2018-06-15T09:12:55.207Z,83.26
2018-06-15T09:13:55.183Z,82.59
2018-06-15T09:14:55.184Z,83.26
2018-06-15T09:15:55.147Z,82.87
2018-06-15T09:16:55.119Z,82.10
2018-06-15T09:17:55.103Z,81.24
2018-06-15T09:18:55.082Z,81.24
2018-06-15T09:19:55.051Z,81.04
2018-06-15T09:20:55.034Z,81.33
2018-06-15T09:21:55.013Z,82.49
2018-06-15T09:22:54.997Z,81.91
2018-06-15T09:23:54.968Z,81.91
2018-06-15T09:24:54.948Z,80.27
2018-06-15T09:25:54.940Z,79.89
2018-06-15T09:26:54.902Z,80.85
2018-06-15T09:27:54.893Z,81.04
2018-06-15T09:28:54.891Z,82.59
2018-06-15T09:29:54.847Z,82.39
2018-06-15T09:30:54.826Z,80.37
2018-06-15T09:31:54.805Z,81.72
2018-06-15T09:32:54.778Z,80.85
2018-06-15T09:33:54.776Z,82.39
2018-06-15T09:34:54.731Z,79.93
2018-06-15T09:35:54.722Z,79.16
2018-06-15T09:36:54.692Z,78.86
2018-06-15T09:37:54.720Z,79.25
2018-06-15T09:38:54.703Z,78.48
2018-06-15T09:39:54.677Z,77.13
2018-06-15T09:40:54.620Z,77.71
2018-06-15T09:41:54.631Z,77.13
2018-06-15T09:42:54.573Z,77.33
2018-06-15T09:43:54.576Z,77.86
2018-06-15T09:44:54.524Z,78.48
2018-06-15T09:45:54.508Z,78.67
2018-06-15T09:46:54.548Z,77.71
2018-06-15T09:47:54.473Z,78.58
2018-06-15T09:48:54.443Z,76.45
2018-06-15T09:49:54.427Z,76.80
2018-06-15T09:50:54.403Z,75.93
2018-06-15T09:51:54.375Z,74.97
2018-06-15T09:52:54.369Z,75.55
2018-06-15T09:53:54.404Z,75.74
2018-06-15T09:54:54.318Z,76.42
2018-06-15T09:55:54.294Z,77.48
2018-06-15T09:56:54.272Z,77.09
2018-06-15T09:57:54.254Z,77.67
2018-06-15T09:58:54.242Z,78.67
2018-06-15T09:59:54.209Z,75.88
2018-06-15T10:00:54.191Z,76.51
2018-06-15T10:01:54.313Z,76.23
2018-06-15T10:02:54.152Z,74.40
2018-06-15T10:03:54.117Z,75.74
2018-06-15T10:04:54.111Z,77.67
2018-06-15T10:05:54.083Z,76.80
2018-06-15T10:06:54.064Z,76.42
2018-06-15T10:07:54.038Z,77.67
2018-06-15T10:08:54.013Z,77.96
2018-06-15T10:09:54.009Z,77.28
2018-06-15T10:10:53.981Z,77.67
2018-06-15T10:11:53.953Z,77.76
2018-06-15T10:12:53.949Z,79.02
2018-06-15T10:13:53.911Z,78.54
2018-06-15T10:14:53.889Z,78.83
2018-06-15T10:15:53.874Z,78.34
2018-06-15T10:16:53.848Z,76.71
2018-06-15T10:17:53.833Z,77.67
2018-06-15T10:18:53.822Z,77.76
2018-06-15T10:19:53.819Z,77.00
2018-06-15T10:20:53.766Z,77.48
2018-06-15T10:21:53.745Z,77.76
2018-06-15T10:22:53.726Z,78.25
2018-06-15T10:23:53.694Z,78.92
2018-06-15T10:24:53.677Z,79.50
2018-06-15T10:25:53.658Z,78.96
2018-06-15T10:26:53.635Z,79.44
2018-06-15T10:27:53.617Z,78.48
2018-06-15T10:28:53.599Z,76.26
2018-06-15T10:29:53.577Z,75.53
2018-06-15T10:30:53.552Z,73.99
2018-06-15T10:31:53.532Z,73.50
2018-06-15T10:32:53.571Z,73.79
2018-06-15T10:33:53.493Z,73.21
2018-06-15T10:34:53.464Z,72.44
2018-06-15T10:35:53.446Z,71.42
2018-06-15T10:36:53.429Z,71.80
2018-06-15T10:37:53.402Z,72.25
2018-06-15T10:38:53.384Z,73.44
2018-06-15T10:39:53.359Z,71.32
2018-06-15T10:40:53.337Z,71.12
2018-06-15T10:41:53.324Z,71.19
2018-06-15T10:42:53.297Z,71.03
2018-06-15T10:43:53.284Z,71.51
2018-06-15T10:44:53.261Z,73.31
2018-06-15T10:45:53.239Z,72.86
2018-06-15T10:46:53.219Z,71.22
2018-06-15T10:47:53.190Z,71.32
2018-06-15T10:48:53.177Z,72.00
2018-06-15T10:49:53.158Z,72.19
2018-06-15T10:50:53.133Z,72.09
2018-06-15T10:51:53.111Z,72.86
2018-06-15T10:52:53.094Z,69.55
2018-06-15T10:53:53.072Z,70.26
2018-06-15T10:54:53.049Z,71.70
2018-06-15T10:55:53.031Z,72.28
2018-06-15T10:56:53.008Z,71.32
2018-06-15T10:57:53.013Z,71.32
2018-06-15T10:58:52.963Z,71.06
2018-06-15T10:59:52.944Z,70.10
2018-06-15T11:00:52.932Z,70.39
2018-06-15T11:01:52.902Z,68.84
2018-06-15T11:02:52.880Z,65.85
2018-06-15T11:03:52.870Z,65.95
2018-06-15T11:04:52.842Z,66.43
2018-06-15T11:05:52.836Z,64.40
2018-06-15T11:06:52.807Z,63.73
2018-06-15T11:07:52.786Z,64.50
2018-06-15T11:08:52.763Z,62.54
2018-06-15T11:09:52.746Z,63.02
2018-06-15T11:10:52.724Z,62.54
2018-06-15T11:11:52.699Z,63.21
2018-06-15T11:12:52.681Z,62.86
2018-06-15T11:13:52.659Z,63.12
2018-06-15T11:14:52.634Z,64.08
2018-06-15T11:15:52.618Z,64.47
2018-06-15T11:16:52.599Z,65.72
2018-06-15T11:17:52.584Z,65.08
2018-06-15T11:18:52.561Z,64.40
2018-06-15T11:19:52.556Z,65.47
2018-06-15T11:20:52.526Z,65.85
2018-06-15T11:21:52.493Z,66.53
2018-06-15T11:22:52.470Z,65.56
2018-06-15T11:23:52.464Z,65.37
2018-06-15T11:24:52.436Z,65.66
2018-06-15T11:25:52.413Z,66.46
2018-06-15T11:26:52.392Z,66.33
2018-06-15T11:27:52.373Z,65.98
2018-06-15T11:28:52.352Z,64.98
2018-06-15T11:29:52.336Z,64.89
2018-06-15T11:30:52.324Z,64.43
2018-06-15T11:31:52.293Z,64.53
2018-06-15T11:32:52.277Z,64.34
2018-06-15T11:33:52.253Z,64.43
2018-06-15T11:34:52.237Z,65.11
2018-06-15T11:35:52.211Z,66.75
2018-06-15T11:36:52.212Z,67.52
2018-06-15T11:37:52.176Z,69.26
2018-06-15T11:38:52.155Z,68.59
2018-06-15T11:39:52.132Z,69.59
2018-06-15T11:40:52.132Z,67.56
2018-06-15T11:41:52.096Z,66.88
2018-06-15T11:42:52.071Z,65.72
2018-06-15T11:43:52.049Z,65.92
2018-06-15T11:44:52.028Z,63.69
2018-06-15T11:45:52.016Z,62.92
2018-06-15T11:46:51.991Z,63.28
2018-06-15T11:47:51.967Z,64.43
2018-06-15T11:48:51.945Z,64.63
2018-06-15T11:49:51.943Z,64.92
2018-06-15T11:50:51.909Z,65.69
2018-06-15T11:51:51.900Z,68.14
2018-06-15T11:52:51.884Z,67.52
2018-06-15T11:53:51.886Z,66.91
2018-06-15T11:54:51.826Z,64.27
2018-06-15T11:55:51.815Z,59.49
2018-06-15T11:56:51.789Z,55.74
2018-06-15T11:57:51.773Z,54.99
2018-06-15T11:58:51.750Z,55.41
2018-06-15T11:59:51.733Z,55.67
2018-06-15T12:00:51.713Z,56.39
2018-06-15T12:01:51.755Z,57.33
2018-06-15T12:02:51.697Z,58.39
2018-06-15T12:03:51.660Z,58.17
2018-06-15T12:04:51.646Z,59.27
2018-06-15T12:05:51.623Z,56.77
2018-06-15T12:06:51.607Z,55.02
2018-06-15T12:07:51.601Z,53.25
2018-06-15T12:08:51.584Z,51.36
2018-06-15T12:09:51.563Z,50.14
2018-06-15T12:10:51.536Z,53.00
2018-06-15T12:11:51.515Z,55.35
2018-06-15T12:12:51.519Z,56.87
2018-06-15T12:13:51.488Z,58.49
2018-06-15T12:14:51.462Z,60.21
2018-06-15T12:15:51.449Z,57.50
2018-06-15T12:16:51.427Z,57.86
2018-06-15T12:17:51.411Z,58.30
2018-06-15T12:18:51.389Z,58.16
2018-06-15T12:19:51.370Z,56.28
2018-06-15T12:20:51.354Z,53.13
2018-06-15T12:21:51.338Z,52.06
2018-06-15T12:22:51.319Z,52.37
2018-06-15T12:23:51.302Z,51.33
2018-06-15T12:24:51.286Z,52.31
2018-06-15T12:25:51.266Z,51.84
2018-06-15T12:26:51.243Z,50.60
2018-06-15T12:27:51.225Z,53.08
2018-06-15T12:28:51.205Z,56.13
2018-06-15T12:29:51.194Z,56.46
2018-06-15T12:30:51.175Z,58.17
2018-06-15T12:31:51.146Z,59.53
2018-06-15T12:32:51.133Z,60.78
2018-06-15T12:33:51.120Z,61.72
2018-06-15T12:34:51.099Z,61.43
2018-06-15T12:35:51.072Z,62.21
2018-06-15T12:36:51.066Z,62.37
2018-06-15T12:37:51.038Z,62.05
2018-06-15T12:38:51.043Z,61.76
2018-06-15T12:39:51.001Z,63.31
2018-06-15T12:40:50.990Z,63.79
2018-06-15T12:41:50.974Z,64.47
2018-06-15T12:42:50.989Z,64.66
2018-06-15T12:43:50.930Z,64.31
2018-06-15T12:44:50.917Z,63.49
2018-06-15T12:45:50.929Z,62.27
2018-06-15T12:46:50.874Z,57.91
2018-06-15T12:47:50.866Z,57.33
2018-06-15T12:48:50.834Z,57.45
2018-06-15T12:49:50.819Z,56.59
2018-06-15T12:50:50.804Z,56.56
2018-06-15T12:51:50.777Z,57.62